sensor_id;sensor_type;location;lat;lon;timestamp;P1;durP1;ratioP1;P2;durP2;ratioP2
18136;SDS011;9194;42.632;23.298;2024-02-21T00:00:21;1.03;;;1.03;;
18136;SDS011;9194;42.632;23.298;2024-02-21T00:05:22;0.93;;;0.93;;
18136;SDS011;9194;42.632;23.298;2024-02-21T00:10:24;0.70;;;0.70;;
18136;SDS011;9194;42.632;23.298;2024-02-21T00:15:25;4.33;;;1.93;;
18136;SDS011;9194;42.632;23.298;2024-02-21T00:20:27;1.73;;;1.10;;
18136;SDS011;9194;42.632;23.298;2024-02-21T00:25:28;0.80;;;0.80;;
18136;SDS011;9194;42.632;23.298;2024-02-21T00:30:29;0.90;;;0.90;;
18136;SDS011;9194;42.632;23.298;2024-02-21T00:35:30;0.97;;;0.97;;
18136;SDS011;9194;42.632;23.298;2024-02-21T00:40:31;0.70;;;0.70;;
18136;SDS011;9194;42.632;23.298;2024-02-21T00:45:33;0.90;;;0.90;;
18136;SDS011;9194;42.632;23.298;2024-02-21T00:50:34;0.70;;;0.70;;
18136;SDS011;9194;42.632;23.298;2024-02-21T00:55:35;1.07;;;1.07;;
18136;SDS011;9194;42.632;23.298;2024-02-21T01:00:36;1.30;;;1.30;;
18136;SDS011;9194;42.632;23.298;2024-02-21T01:05:38;1.43;;;1.33;;
18136;SDS011;9194;42.632;23.298;2024-02-21T01:10:39;0.87;;;0.87;;
18136;SDS011;9194;42.632;23.298;2024-02-21T01:15:40;1.17;;;1.17;;
18136;SDS011;9194;42.632;23.298;2024-02-21T01:20:41;1.00;;;1.00;;
18136;SDS011;9194;42.632;23.298;2024-02-21T01:25:42;1.20;;;1.13;;
18136;SDS011;9194;42.632;23.298;2024-02-21T01:30:44;1.03;;;1.03;;
18136;SDS011;9194;42.632;23.298;2024-02-21T01:35:45;1.00;;;1.00;;
18136;SDS011;9194;42.632;23.298;2024-02-21T01:40:46;1.63;;;1.53;;
18136;SDS011;9194;42.632;23.298;2024-02-21T01:45:48;4.83;;;1.63;;
18136;SDS011;9194;42.632;23.298;2024-02-21T01:50:51;2.63;;;2.20;;
18136;SDS011;9194;42.632;23.298;2024-02-21T01:55:53;3.17;;;2.63;;
18136;SDS011;9194;42.632;23.298;2024-02-21T02:00:54;2.70;;;2.50;;
18136;SDS011;9194;42.632;23.298;2024-02-21T02:05:57;2.07;;;1.90;;
18136;SDS011;9194;42.632;23.298;2024-02-21T02:10:59;1.10;;;1.10;;
18136;SDS011;9194;42.632;23.298;2024-02-21T02:16:00;2.27;;;1.53;;
18136;SDS011;9194;42.632;23.298;2024-02-21T02:21:01;2.93;;;1.83;;
18136;SDS011;9194;42.632;23.298;2024-02-21T02:26:05;1.87;;;1.60;;
18136;SDS011;9194;42.632;23.298;2024-02-21T02:31:08;1.77;;;1.67;;
18136;SDS011;9194;42.632;23.298;2024-02-21T02:36:09;3.03;;;1.87;;
18136;SDS011;9194;42.632;23.298;2024-02-21T02:41:10;1.60;;;1.53;;
18136;SDS011;9194;42.632;23.298;2024-02-21T02:46:11;2.60;;;2.33;;
18136;SDS011;9194;42.632;23.298;2024-02-21T02:51:13;5.20;;;2.40;;
18136;SDS011;9194;42.632;23.298;2024-02-21T02:56:17;2.00;;;1.90;;
18136;SDS011;9194;42.632;23.298;2024-02-21T03:01:18;1.80;;;1.50;;
18136;SDS011;9194;42.632;23.298;2024-02-21T03:06:19;4.83;;;2.77;;
18136;SDS011;9194;42.632;23.298;2024-02-21T03:11:20;2.10;;;2.00;;
18136;SDS011;9194;42.632;23.298;2024-02-21T03:16:29;1.70;;;1.60;;
18136;SDS011;9194;42.632;23.298;2024-02-21T03:21:30;2.57;;;2.47;;
18136;SDS011;9194;42.632;23.298;2024-02-21T03:26:31;2.10;;;1.90;;
18136;SDS011;9194;42.632;23.298;2024-02-21T03:31:33;2.63;;;2.40;;
18136;SDS011;9194;42.632;23.298;2024-02-21T03:36:34;2.13;;;2.03;;
18136;SDS011;9194;42.632;23.298;2024-02-21T03:41:36;2.20;;;2.00;;
18136;SDS011;9194;42.632;23.298;2024-02-21T03:46:37;1.87;;;1.83;;
18136;SDS011;9194;42.632;23.298;2024-02-21T03:51:38;3.33;;;3.00;;
18136;SDS011;9194;42.632;23.298;2024-02-21T03:56:39;2.07;;;1.97;;
18136;SDS011;9194;42.632;23.298;2024-02-21T04:01:41;2.83;;;2.63;;
18136;SDS011;9194;42.632;23.298;2024-02-21T04:06:49;2.77;;;2.67;;
18136;SDS011;9194;42.632;23.298;2024-02-21T04:11:51;4.83;;;2.97;;
18136;SDS011;9194;42.632;23.298;2024-02-21T04:16:52;2.93;;;2.73;;
18136;SDS011;9194;42.632;23.298;2024-02-21T04:21:54;4.83;;;1.57;;
18136;SDS011;9194;42.632;23.298;2024-02-21T04:26:55;5.03;;;2.10;;
18136;SDS011;9194;42.632;23.298;2024-02-21T04:31:56;1.60;;;1.57;;
18136;SDS011;9194;42.632;23.298;2024-02-21T04:36:57;2.53;;;2.33;;
18136;SDS011;9194;42.632;23.298;2024-02-21T04:41:59;1.70;;;1.60;;
18136;SDS011;9194;42.632;23.298;2024-02-21T04:47:00;2.63;;;1.63;;
18136;SDS011;9194;42.632;23.298;2024-02-21T04:52:01;3.10;;;2.13;;
18136;SDS011;9194;42.632;23.298;2024-02-21T04:57:03;2.03;;;1.83;;
18136;SDS011;9194;42.632;23.298;2024-02-21T05:02:04;3.57;;;2.20;;
18136;SDS011;9194;42.632;23.298;2024-02-21T05:07:06;1.60;;;1.60;;
18136;SDS011;9194;42.632;23.298;2024-02-21T05:12:07;1.87;;;1.77;;
18136;SDS011;9194;42.632;23.298;2024-02-21T05:17:08;1.27;;;1.27;;
18136;SDS011;9194;42.632;23.298;2024-02-21T05:22:10;5.73;;;2.80;;
18136;SDS011;9194;42.632;23.298;2024-02-21T05:27:11;1.83;;;1.73;;
18136;SDS011;9194;42.632;23.298;2024-02-21T05:32:13;1.33;;;1.33;;
18136;SDS011;9194;42.632;23.298;2024-02-21T05:37:14;2.33;;;1.83;;
18136;SDS011;9194;42.632;23.298;2024-02-21T05:42:16;1.10;;;1.10;;
18136;SDS011;9194;42.632;23.298;2024-02-21T05:47:17;1.87;;;1.77;;
18136;SDS011;9194;42.632;23.298;2024-02-21T05:52:21;2.27;;;2.17;;
18136;SDS011;9194;42.632;23.298;2024-02-21T05:57:23;2.07;;;1.97;;
18136;SDS011;9194;42.632;23.298;2024-02-21T06:02:24;2.23;;;2.10;;
18136;SDS011;9194;42.632;23.298;2024-02-21T06:07:25;6.33;;;2.47;;
18136;SDS011;9194;42.632;23.298;2024-02-21T06:12:27;2.27;;;2.13;;
18136;SDS011;9194;42.632;23.298;2024-02-21T06:17:28;5.93;;;3.60;;
18136;SDS011;9194;42.632;23.298;2024-02-21T06:22:30;2.43;;;2.23;;
18136;SDS011;9194;42.632;23.298;2024-02-21T06:27:31;1.73;;;1.73;;
18136;SDS011;9194;42.632;23.298;2024-02-21T06:32:32;5.53;;;2.23;;
18136;SDS011;9194;42.632;23.298;2024-02-21T06:37:34;2.23;;;2.13;;
18136;SDS011;9194;42.632;23.298;2024-02-21T06:42:35;5.53;;;2.63;;
18136;SDS011;9194;42.632;23.298;2024-02-21T06:47:36;3.80;;;2.97;;
18136;SDS011;9194;42.632;23.298;2024-02-21T06:52:37;3.23;;;2.43;;
18136;SDS011;9194;42.632;23.298;2024-02-21T06:57:39;4.87;;;2.57;;
18136;SDS011;9194;42.632;23.298;2024-02-21T07:02:40;1.30;;;1.30;;
18136;SDS011;9194;42.632;23.298;2024-02-21T07:07:41;3.70;;;2.10;;
18136;SDS011;9194;42.632;23.298;2024-02-21T07:12:42;2.00;;;1.90;;
18136;SDS011;9194;42.632;23.298;2024-02-21T07:17:44;2.03;;;2.03;;
18136;SDS011;9194;42.632;23.298;2024-02-21T07:22:45;5.17;;;2.87;;
18136;SDS011;9194;42.632;23.298;2024-02-21T07:27:47;1.50;;;1.33;;
18136;SDS011;9194;42.632;23.298;2024-02-21T07:32:51;2.20;;;2.10;;
18136;SDS011;9194;42.632;23.298;2024-02-21T07:37:52;3.97;;;2.70;;
18136;SDS011;9194;42.632;23.298;2024-02-21T07:42:53;4.53;;;2.37;;
18136;SDS011;9194;42.632;23.298;2024-02-21T07:47:54;7.57;;;3.00;;
18136;SDS011;9194;42.632;23.298;2024-02-21T07:52:55;3.17;;;2.43;;
18136;SDS011;9194;42.632;23.298;2024-02-21T07:57:57;6.37;;;2.57;;
18136;SDS011;9194;42.632;23.298;2024-02-21T08:02:58;3.07;;;1.93;;
18136;SDS011;9194;42.632;23.298;2024-02-21T08:07:59;3.40;;;1.97;;
18136;SDS011;9194;42.632;23.298;2024-02-21T08:13:00;5.07;;;2.47;;
18136;SDS011;9194;42.632;23.298;2024-02-21T08:18:02;3.40;;;2.17;;
18136;SDS011;9194;42.632;23.298;2024-02-21T08:23:04;2.53;;;2.33;;
18136;SDS011;9194;42.632;23.298;2024-02-21T08:28:06;2.13;;;2.03;;
18136;SDS011;9194;42.632;23.298;2024-02-21T08:33:08;2.47;;;2.27;;
18136;SDS011;9194;42.632;23.298;2024-02-21T08:38:09;2.30;;;1.80;;
18136;SDS011;9194;42.632;23.298;2024-02-21T08:43:10;1.60;;;1.40;;
18136;SDS011;9194;42.632;23.298;2024-02-21T08:48:12;1.60;;;1.50;;
18136;SDS011;9194;42.632;23.298;2024-02-21T08:53:13;1.80;;;1.70;;
18136;SDS011;9194;42.632;23.298;2024-02-21T08:58:14;1.57;;;1.50;;
18136;SDS011;9194;42.632;23.298;2024-02-21T09:03:16;1.87;;;1.80;;
18136;SDS011;9194;42.632;23.298;2024-02-21T09:08:18;2.53;;;1.53;;
18136;SDS011;9194;42.632;23.298;2024-02-21T09:13:20;6.40;;;2.07;;
18136;SDS011;9194;42.632;23.298;2024-02-21T09:18:21;5.37;;;2.23;;
18136;SDS011;9194;42.632;23.298;2024-02-21T09:23:25;3.83;;;1.60;;
18136;SDS011;9194;42.632;23.298;2024-02-21T09:28:27;2.53;;;2.00;;
18136;SDS011;9194;42.632;23.298;2024-02-21T09:33:28;1.80;;;1.70;;
18136;SDS011;9194;42.632;23.298;2024-02-21T09:38:29;4.17;;;1.53;;
18136;SDS011;9194;42.632;23.298;2024-02-21T09:43:30;1.93;;;1.80;;
18136;SDS011;9194;42.632;23.298;2024-02-21T09:48:45;1.60;;;1.50;;
18136;SDS011;9194;42.632;23.298;2024-02-21T09:53:54;2.13;;;1.67;;
18136;SDS011;9194;42.632;23.298;2024-02-21T09:58:57;2.53;;;2.07;;
18136;SDS011;9194;42.632;23.298;2024-02-21T10:03:58;2.83;;;2.27;;
18136;SDS011;9194;42.632;23.298;2024-02-21T10:08:59;4.83;;;2.60;;
18136;SDS011;9194;42.632;23.298;2024-02-21T10:14:07;1.43;;;1.43;;
18136;SDS011;9194;42.632;23.298;2024-02-21T10:19:18;1.17;;;1.17;;
18136;SDS011;9194;42.632;23.298;2024-02-21T10:24:25;1.80;;;1.70;;
18136;SDS011;9194;42.632;23.298;2024-02-21T10:29:28;1.10;;;1.10;;
18136;SDS011;9194;42.632;23.298;2024-02-21T10:34:29;4.20;;;1.53;;
18136;SDS011;9194;42.632;23.298;2024-02-21T10:39:34;2.40;;;2.20;;
18136;SDS011;9194;42.632;23.298;2024-02-21T10:44:39;2.40;;;1.90;;
18136;SDS011;9194;42.632;23.298;2024-02-21T10:49:42;2.60;;;2.13;;
18136;SDS011;9194;42.632;23.298;2024-02-21T10:55:04;1.63;;;1.53;;
18136;SDS011;9194;42.632;23.298;2024-02-21T11:00:14;1.67;;;1.57;;
18136;SDS011;9194;42.632;23.298;2024-02-21T11:05:18;1.23;;;1.20;;
18136;SDS011;9194;42.632;23.298;2024-02-21T11:10:23;1.67;;;1.57;;
18136;SDS011;9194;42.632;23.298;2024-02-21T11:15:26;1.47;;;1.37;;
18136;SDS011;9194;42.632;23.298;2024-02-21T11:20:34;3.40;;;1.47;;
18136;SDS011;9194;42.632;23.298;2024-02-21T11:25:37;1.03;;;1.03;;
18136;SDS011;9194;42.632;23.298;2024-02-21T11:30:38;1.80;;;1.37;;
18136;SDS011;9194;42.632;23.298;2024-02-21T11:35:40;1.40;;;1.13;;
18136;SDS011;9194;42.632;23.298;2024-02-21T11:40:43;2.47;;;1.20;;
18136;SDS011;9194;42.632;23.298;2024-02-21T11:45:46;1.30;;;1.30;;
18136;SDS011;9194;42.632;23.298;2024-02-21T11:50:54;1.50;;;1.33;;
18136;SDS011;9194;42.632;23.298;2024-02-21T11:55:56;1.57;;;1.47;;
18136;SDS011;9194;42.632;23.298;2024-02-21T12:00:57;2.23;;;1.33;;
18136;SDS011;9194;42.632;23.298;2024-02-21T12:05:59;1.83;;;1.67;;
18136;SDS011;9194;42.632;23.298;2024-02-21T12:11:00;3.87;;;1.90;;
18136;SDS011;9194;42.632;23.298;2024-02-21T12:16:02;1.67;;;1.57;;
18136;SDS011;9194;42.632;23.298;2024-02-21T12:21:04;1.43;;;1.33;;
18136;SDS011;9194;42.632;23.298;2024-02-21T12:26:05;1.10;;;1.10;;
18136;SDS011;9194;42.632;23.298;2024-02-21T12:31:07;2.03;;;1.70;;
18136;SDS011;9194;42.632;23.298;2024-02-21T12:36:08;1.73;;;1.63;;
18136;SDS011;9194;42.632;23.298;2024-02-21T12:41:09;2.40;;;1.53;;
18136;SDS011;9194;42.632;23.298;2024-02-21T12:46:10;2.90;;;1.27;;
18136;SDS011;9194;42.632;23.298;2024-02-21T12:51:12;1.13;;;1.00;;
18136;SDS011;9194;42.632;23.298;2024-02-21T12:56:13;2.03;;;1.90;;
18136;SDS011;9194;42.632;23.298;2024-02-21T13:01:14;1.80;;;1.10;;
18136;SDS011;9194;42.632;23.298;2024-02-21T13:06:16;1.10;;;1.10;;
18136;SDS011;9194;42.632;23.298;2024-02-21T13:11:17;1.23;;;1.23;;
18136;SDS011;9194;42.632;23.298;2024-02-21T13:16:19;1.20;;;1.20;;
18136;SDS011;9194;42.632;23.298;2024-02-21T13:21:20;1.70;;;1.40;;
18136;SDS011;9194;42.632;23.298;2024-02-21T13:26:21;3.47;;;1.10;;
18136;SDS011;9194;42.632;23.298;2024-02-21T13:31:22;2.43;;;0.70;;
18136;SDS011;9194;42.632;23.298;2024-02-21T13:36:24;1.50;;;1.50;;
18136;SDS011;9194;42.632;23.298;2024-02-21T13:41:25;2.20;;;2.00;;
18136;SDS011;9194;42.632;23.298;2024-02-21T13:46:27;1.97;;;1.50;;
18136;SDS011;9194;42.632;23.298;2024-02-21T13:51:28;0.87;;;0.87;;
18136;SDS011;9194;42.632;23.298;2024-02-21T13:56:30;1.53;;;1.47;;
18136;SDS011;9194;42.632;23.298;2024-02-21T14:01:32;1.20;;;1.20;;
18136;SDS011;9194;42.632;23.298;2024-02-21T14:06:33;1.30;;;1.23;;
18136;SDS011;9194;42.632;23.298;2024-02-21T14:11:34;4.40;;;1.17;;
18136;SDS011;9194;42.632;23.298;2024-02-21T14:16:35;1.93;;;1.80;;
18136;SDS011;9194;42.632;23.298;2024-02-21T14:21:36;0.93;;;0.93;;
18136;SDS011;9194;42.632;23.298;2024-02-21T14:26:38;1.67;;;1.57;;
18136;SDS011;9194;42.632;23.298;2024-02-21T14:31:42;1.83;;;1.70;;
18136;SDS011;9194;42.632;23.298;2024-02-21T14:36:43;2.07;;;1.97;;
18136;SDS011;9194;42.632;23.298;2024-02-21T14:41:44;1.07;;;1.07;;
18136;SDS011;9194;42.632;23.298;2024-02-21T14:46:45;2.17;;;1.97;;
18136;SDS011;9194;42.632;23.298;2024-02-21T14:51:47;2.73;;;1.93;;
18136;SDS011;9194;42.632;23.298;2024-02-21T14:56:48;1.43;;;1.33;;
18136;SDS011;9194;42.632;23.298;2024-02-21T15:01:50;2.47;;;2.27;;
18136;SDS011;9194;42.632;23.298;2024-02-21T15:06:51;6.17;;;2.97;;
18136;SDS011;9194;42.632;23.298;2024-02-21T15:11:52;1.13;;;1.13;;
18136;SDS011;9194;42.632;23.298;2024-02-21T15:16:54;2.90;;;1.23;;
18136;SDS011;9194;42.632;23.298;2024-02-21T15:21:55;1.77;;;1.67;;
18136;SDS011;9194;42.632;23.298;2024-02-21T15:26:56;1.60;;;1.50;;
18136;SDS011;9194;42.632;23.298;2024-02-21T15:31:57;1.83;;;1.70;;
18136;SDS011;9194;42.632;23.298;2024-02-21T15:36:59;5.97;;;2.07;;
18136;SDS011;9194;42.632;23.298;2024-02-21T15:42:00;4.57;;;1.53;;
18136;SDS011;9194;42.632;23.298;2024-02-21T15:47:01;1.50;;;1.50;;
18136;SDS011;9194;42.632;23.298;2024-02-21T15:52:03;1.90;;;1.80;;
18136;SDS011;9194;42.632;23.298;2024-02-21T15:57:04;2.00;;;1.43;;
18136;SDS011;9194;42.632;23.298;2024-02-21T16:02:08;1.43;;;1.43;;
18136;SDS011;9194;42.632;23.298;2024-02-21T16:07:09;1.10;;;1.10;;
18136;SDS011;9194;42.632;23.298;2024-02-21T16:12:10;4.93;;;1.63;;
18136;SDS011;9194;42.632;23.298;2024-02-21T16:17:12;2.67;;;2.33;;
18136;SDS011;9194;42.632;23.298;2024-02-21T16:22:13;1.47;;;1.40;;
18136;SDS011;9194;42.632;23.298;2024-02-21T16:27:15;1.07;;;1.07;;
18136;SDS011;9194;42.632;23.298;2024-02-21T16:32:17;2.10;;;2.00;;
18136;SDS011;9194;42.632;23.298;2024-02-21T16:37:18;1.30;;;1.30;;
18136;SDS011;9194;42.632;23.298;2024-02-21T16:42:19;1.13;;;1.13;;
18136;SDS011;9194;42.632;23.298;2024-02-21T16:47:21;1.43;;;1.43;;
18136;SDS011;9194;42.632;23.298;2024-02-21T16:52:25;2.27;;;1.73;;
18136;SDS011;9194;42.632;23.298;2024-02-21T16:57:27;1.97;;;1.87;;
18136;SDS011;9194;42.632;23.298;2024-02-21T17:02:28;2.00;;;1.90;;
18136;SDS011;9194;42.632;23.298;2024-02-21T17:07:29;2.73;;;2.53;;
18136;SDS011;9194;42.632;23.298;2024-02-21T17:12:31;2.80;;;2.50;;
18136;SDS011;9194;42.632;23.298;2024-02-21T17:17:34;1.37;;;1.37;;
18136;SDS011;9194;42.632;23.298;2024-02-21T17:22:38;1.90;;;1.80;;
18136;SDS011;9194;42.632;23.298;2024-02-21T17:27:39;2.97;;;2.73;;
18136;SDS011;9194;42.632;23.298;2024-02-21T17:32:41;2.40;;;2.23;;
18136;SDS011;9194;42.632;23.298;2024-02-21T17:37:42;3.70;;;2.33;;
18136;SDS011;9194;42.632;23.298;2024-02-21T17:42:43;1.93;;;1.83;;
18136;SDS011;9194;42.632;23.298;2024-02-21T17:47:45;2.57;;;1.97;;
18136;SDS011;9194;42.632;23.298;2024-02-21T17:52:46;10.60;;;2.07;;
18136;SDS011;9194;42.632;23.298;2024-02-21T17:57:47;1.73;;;1.67;;
18136;SDS011;9194;42.632;23.298;2024-02-21T18:02:50;1.30;;;1.20;;
18136;SDS011;9194;42.632;23.298;2024-02-21T18:07:51;1.87;;;1.33;;
18136;SDS011;9194;42.632;23.298;2024-02-21T18:12:53;2.87;;;1.83;;
18136;SDS011;9194;42.632;23.298;2024-02-21T18:17:55;1.47;;;1.47;;
18136;SDS011;9194;42.632;23.298;2024-02-21T18:22:58;1.10;;;1.10;;
18136;SDS011;9194;42.632;23.298;2024-02-21T18:27:59;1.13;;;1.13;;
18136;SDS011;9194;42.632;23.298;2024-02-21T18:33:01;2.13;;;2.03;;
18136;SDS011;9194;42.632;23.298;2024-02-21T18:38:03;1.67;;;1.57;;
18136;SDS011;9194;42.632;23.298;2024-02-21T18:43:04;3.43;;;1.60;;
18136;SDS011;9194;42.632;23.298;2024-02-21T18:48:05;2.40;;;1.50;;
18136;SDS011;9194;42.632;23.298;2024-02-21T18:53:08;1.63;;;1.60;;
18136;SDS011;9194;42.632;23.298;2024-02-21T18:58:09;1.13;;;1.13;;
18136;SDS011;9194;42.632;23.298;2024-02-21T19:03:10;2.53;;;2.27;;
18136;SDS011;9194;42.632;23.298;2024-02-21T19:08:12;1.80;;;1.70;;
18136;SDS011;9194;42.632;23.298;2024-02-21T19:13:13;1.53;;;0.90;;
18136;SDS011;9194;42.632;23.298;2024-02-21T19:18:15;1.87;;;1.77;;
18136;SDS011;9194;42.632;23.298;2024-02-21T19:23:16;0.77;;;0.77;;
18136;SDS011;9194;42.632;23.298;2024-02-21T19:28:17;0.70;;;0.70;;
18136;SDS011;9194;42.632;23.298;2024-02-21T19:33:20;0.93;;;0.93;;
18136;SDS011;9194;42.632;23.298;2024-02-21T19:38:21;1.47;;;1.27;;
18136;SDS011;9194;42.632;23.298;2024-02-21T19:43:27;1.13;;;1.13;;
18136;SDS011;9194;42.632;23.298;2024-02-21T19:48:28;0.70;;;0.70;;
18136;SDS011;9194;42.632;23.298;2024-02-21T19:53:30;0.83;;;0.83;;
18136;SDS011;9194;42.632;23.298;2024-02-21T19:58:33;0.93;;;0.93;;
18136;SDS011;9194;42.632;23.298;2024-02-21T20:03:34;0.70;;;0.70;;
18136;SDS011;9194;42.632;23.298;2024-02-21T20:08:35;0.80;;;0.80;;
18136;SDS011;9194;42.632;23.298;2024-02-21T20:13:37;0.70;;;0.70;;
18136;SDS011;9194;42.632;23.298;2024-02-21T20:18:38;0.90;;;0.90;;
18136;SDS011;9194;42.632;23.298;2024-02-21T20:23:39;0.60;;;0.60;;
18136;SDS011;9194;42.632;23.298;2024-02-21T20:28:40;0.60;;;0.60;;
18136;SDS011;9194;42.632;23.298;2024-02-21T20:33:41;1.00;;;1.00;;
18136;SDS011;9194;42.632;23.298;2024-02-21T20:38:43;0.60;;;0.60;;
18136;SDS011;9194;42.632;23.298;2024-02-21T20:43:45;0.80;;;0.80;;
18136;SDS011;9194;42.632;23.298;2024-02-21T20:48:46;0.70;;;0.70;;
18136;SDS011;9194;42.632;23.298;2024-02-21T20:53:47;1.47;;;0.93;;
18136;SDS011;9194;42.632;23.298;2024-02-21T20:58:48;1.03;;;1.03;;
18136;SDS011;9194;42.632;23.298;2024-02-21T21:03:50;1.00;;;1.00;;
18136;SDS011;9194;42.632;23.298;2024-02-21T21:08:51;1.07;;;1.07;;
18136;SDS011;9194;42.632;23.298;2024-02-21T21:13:52;0.93;;;0.93;;
18136;SDS011;9194;42.632;23.298;2024-02-21T21:18:53;2.70;;;0.90;;
18136;SDS011;9194;42.632;23.298;2024-02-21T21:23:55;1.03;;;1.03;;
18136;SDS011;9194;42.632;23.298;2024-02-21T21:28:56;0.80;;;0.80;;
18136;SDS011;9194;42.632;23.298;2024-02-21T21:33:58;0.90;;;0.90;;
18136;SDS011;9194;42.632;23.298;2024-02-21T21:38:59;1.80;;;1.70;;
18136;SDS011;9194;42.632;23.298;2024-02-21T21:44:00;0.70;;;0.70;;
18136;SDS011;9194;42.632;23.298;2024-02-21T21:49:02;0.67;;;0.67;;
18136;SDS011;9194;42.632;23.298;2024-02-21T21:54:03;1.33;;;1.33;;
18136;SDS011;9194;42.632;23.298;2024-02-21T21:59:07;0.83;;;0.83;;
18136;SDS011;9194;42.632;23.298;2024-02-21T22:04:12;0.80;;;0.80;;
18136;SDS011;9194;42.632;23.298;2024-02-21T22:09:13;1.17;;;1.00;;
18136;SDS011;9194;42.632;23.298;2024-02-21T22:14:14;1.07;;;0.97;;
18136;SDS011;9194;42.632;23.298;2024-02-21T22:19:16;0.77;;;0.77;;
18136;SDS011;9194;42.632;23.298;2024-02-21T22:24:17;0.70;;;0.70;;
18136;SDS011;9194;42.632;23.298;2024-02-21T22:29:19;0.60;;;0.60;;
18136;SDS011;9194;42.632;23.298;2024-02-21T22:34:21;0.70;;;0.70;;
18136;SDS011;9194;42.632;23.298;2024-02-21T22:39:23;0.80;;;0.80;;
18136;SDS011;9194;42.632;23.298;2024-02-21T22:44:25;0.67;;;0.67;;
18136;SDS011;9194;42.632;23.298;2024-02-21T22:49:26;0.73;;;0.73;;
18136;SDS011;9194;42.632;23.298;2024-02-21T22:54:28;0.60;;;0.60;;
18136;SDS011;9194;42.632;23.298;2024-02-21T22:59:29;0.67;;;0.67;;
18136;SDS011;9194;42.632;23.298;2024-02-21T23:04:31;0.70;;;0.70;;
18136;SDS011;9194;42.632;23.298;2024-02-21T23:09:32;0.60;;;0.60;;
18136;SDS011;9194;42.632;23.298;2024-02-21T23:14:33;0.73;;;0.73;;
18136;SDS011;9194;42.632;23.298;2024-02-21T23:19:35;0.70;;;0.70;;
18136;SDS011;9194;42.632;23.298;2024-02-21T23:24:36;0.70;;;0.70;;
18136;SDS011;9194;42.632;23.298;2024-02-21T23:29:38;0.90;;;0.90;;
18136;SDS011;9194;42.632;23.298;2024-02-21T23:34:39;0.73;;;0.73;;
18136;SDS011;9194;42.632;23.298;2024-02-21T23:39:40;0.80;;;0.80;;
18136;SDS011;9194;42.632;23.298;2024-02-21T23:44:41;1.00;;;1.00;;
18136;SDS011;9194;42.632;23.298;2024-02-21T23:49:42;0.90;;;0.90;;
18136;SDS011;9194;42.632;23.298;2024-02-21T23:54:44;0.70;;;0.70;;
18136;SDS011;9194;42.632;23.298;2024-02-21T23:59:45;0.93;;;0.93;;
